Latest Weather Observations for McArthur River Mine

IDD60801

Issued at 7:05 pm CST Saturday 23 August 2014 (issued every 30 minutes, with the page automatically refreshed every 10 minutes)

About weather observations | Map of weather stations | Latest weather observations for NT | Other Formats
Station Details ID: 014704 Name: MCARTHUR RIVER MINE AIRPORT Lat: -16.44 Lon: 136.08 Height: 40.0 m
Data from the previous 72 hours. | See also: Recent months at McArthur River Mine
Date/Time
CST
Temp
°C
App
Temp
°C
Dew
Point
Rel
Hum
%
Delta-T
°C
Wind Press
QNH
hPa
Press
MSL
hPa
Rain
since 9 am
mm
Dir
 
Spd
km/h
Gust
km/h
Spd
kts
Gust
kts
23/07:00pm 27.2 24.5 9.1 32 9.9 NNE 13 17 7 9 1014.9 - 0.0
23/06:30pm 27.9 25.7 9.2 31 10.3 NNE 11 19 6 10 1014.5 - 0.0
23/06:00pm 28.9 26.6 9.1 29 11.0 NNE 11 20 6 11 1014.0 1013.8 0.0
23/05:30pm 29.8 26.7 8.8 27 11.6 NE 15 24 8 13 1013.7 - 0.0
23/05:00pm 30.3 26.4 8.7 26 12.0 NE 19 28 10 15 1013.4 - 0.0
23/04:30pm 30.6 26.8 8.9 26 12.1 NE 19 28 10 15 1013.4 - 0.0
23/04:00pm 30.9 28.1 8.6 25 12.4 NE 13 24 7 13 1013.4 - 0.0
23/03:30pm 32.2 28.1 6.4 20 13.9 NE 17 32 9 17 1013.6 - 0.0
23/03:00pm 32.4 27.3 4.2 17 14.7 NNE 20 30 11 16 1013.6 1013.4 0.0
23/02:30pm 31.9 28.2 2.1 15 15.0 NE 11 24 6 13 1014.1 - 0.0
23/02:00pm 32.9 27.5 -1.4 11 16.3 NE 17 26 9 14 1014.3 - 0.0
23/01:30pm 32.2 25.5 -4.6 9 16.5 NE 22 30 12 16 1014.8 - 0.0
23/01:00pm 32.0 26.7 -3.4 10 16.2 ENE 15 24 8 13 1015.2 - 0.0
23/12:30pm 31.6 26.3 -3.7 10 16.0 ENE 15 24 8 13 1015.5 - 0.0
23/12:00pm 30.2 24.3 -2.3 12 14.9 E 19 28 10 15 1015.9 1015.8 0.0
23/11:30am 29.4 24.3 -1.9 13 14.4 SE 15 24 8 13 1016.3 - 0.0
23/11:00am 28.6 23.6 -1.5 14 13.9 SE 15 22 8 12 1016.9 - 0.0
23/10:30am 27.1 22.8 -1.7 15 13.1 SE 11 17 6 9 1017.1 - 0.0
23/10:00am 25.8 22.4 -0.3 18 12.0 SE 7 15 4 8 1017.4 - 0.0
23/09:30am 22.1 20.0 1.7 26 9.5 WSW 2 9 1 5 1017.5 - 0.0
23/09:00am 19.8 16.9 1.3 29 8.4 SW 6 9 3 5 1017.3 1017.2 0.0
23/08:30am 17.1 13.9 0.7 33 7.2 SW 7 11 4 6 1017.2 - 0.0
23/08:00am 13.9 10.9 2.2 45 5.1 WSW 7 9 4 5 1017.2 - 0.0
23/07:30am 10.5 8.1 2.4 57 3.5 SSW 4 7 2 4 1017.0 - 0.0
23/07:00am 9.1 6.6 1.8 60 3.0 SSW 4 7 2 4 1016.6 - 0.0
23/06:30am 8.8 6.0 1.9 62 2.9 SSW 6 7 3 4 1016.5 - 0.0
23/06:00am 7.6 5.5 1.7 66 2.4 SW 2 9 1 5 1016.2 1016.1 0.0
23/05:30am 8.4 6.7 1.8 63 2.7 CALM 0 0 0 0 1016.1 - 0.0
23/05:00am 8.4 5.6 1.8 63 2.7 SW 6 7 3 4 1015.9 - 0.0
23/04:30am 8.7 6.7 2.1 63 2.8 W 2 6 1 3 1015.9 - 0.0
23/04:00am 9.0 6.1 1.4 59 3.1 WSW 6 7 3 4 1015.8 - 0.0
23/03:30am 9.6 6.7 1.3 56 3.4 SSW 6 7 3 4 1015.9 - 0.0
23/03:00am 10.0 8.3 2.1 58 3.3 CALM 0 6 0 3 1015.9 1015.8 0.0
23/02:30am 10.2 7.4 2.1 57 3.4 W 6 7 3 4 1016.1 - 0.0
23/02:00am 10.3 7.5 2.2 57 3.4 WSW 6 7 3 4 1016.3 - 0.0
23/01:30am 10.7 7.7 1.8 54 3.8 W 7 7 4 4 1016.4 - 0.0
23/01:00am 11.6 9.9 1.8 51 4.2 CALM 0 0 0 0 1016.6 - 0.0
23/12:30am 12.3 10.6 1.6 48 4.6 CALM 0 0 0 0 1016.7 - 0.0
23/12:00am 12.9 11.1 1.0 44 5.0 SW 0 0 0 0 1016.7 1016.6 0.0
 
Date/Time
CST
Temp
°C
App
Temp
°C
Dew
Point
Rel
Hum
%
Delta-T
°C
Wind Press
QNH
hPa
Press
MSL
hPa
Rain
since 9 am
mm
Dir
 
Spd
km/h
Gust
km/h
Spd
kts
Gust
kts
22/11:30pm 14.3 12.6 1.6 42 5.5 CALM 0 0 0 0 1016.8 - 0.0
22/11:00pm 15.3 13.1 1.1 38 6.2 WSW 2 7 1 4 1016.8 - 0.0
22/10:30pm 16.3 12.3 0.4 34 6.9 WSW 11 17 6 9 1016.8 - 0.0
22/10:15pm 16.5 13.4 0.2 33 7.0 N 6 7 3 4 1016.6 - 0.0
22/10:05pm 17.7 14.8 1.2 33 7.3 NNE 6 7 3 4 1016.4 - 0.0
22/10:00pm 18.1 15.0 0.3 30 7.8 NE 6 7 3 4 1016.4 - 0.0
22/09:30pm 20.1 16.9 0.5 27 8.8 NNE 7 9 4 5 1016.1 - 0.0
22/09:07pm 21.4 17.8 0.6 25 9.4 NE 9 13 5 7 1016.1 - 0.0
22/09:00pm 21.4 17.3 0.0 24 9.6 NE 11 13 6 7 1016.0 1015.9 0.0
22/08:32pm 21.7 18.1 0.3 24 9.7 NE 9 13 5 7 1015.8 - 0.0
22/08:30pm 21.7 18.1 0.3 24 9.7 NE 9 13 5 7 1015.8 - 0.0
22/08:00pm 22.1 18.6 -1.2 21 10.2 NE 7 9 4 5 1015.5 - 0.0
22/07:30pm 20.6 16.8 -5.3 17 10.4 S 6 9 3 5 1014.8 - 0.0
22/07:00pm 22.8 18.9 -7.0 13 11.8 SSE 6 7 3 4 1014.3 - 0.0
22/06:30pm 25.8 21.5 -9.4 9 13.7 SSE 7 9 4 5 1014.0 - 0.0
22/06:00pm 28.1 23.8 -9.2 8 14.9 SSE 7 9 4 5 1013.7 1013.5 0.0
22/05:30pm 29.0 24.1 -12.2 6 15.8 SE 9 15 5 8 1013.6 - 0.0
22/05:00pm 29.5 24.2 -11.8 6 16.0 SSE 11 19 6 10 1013.4 - 0.0
22/04:30pm 29.6 23.4 -14.0 5 16.3 SE 15 20 8 11 1013.4 - 0.0
22/04:00pm 29.7 23.7 -11.7 6 16.1 ESE 15 24 8 13 1013.4 - 0.0
22/03:30pm 30.1 24.5 -11.4 6 16.3 E 13 20 7 11 1013.4 - 0.0
22/03:00pm 29.0 22.9 -12.2 6 15.8 ESE 15 24 8 13 1013.8 1013.6 0.0
22/02:30pm 29.9 24.4 -9.6 7 16.0 E 13 22 7 12 1014.2 - 0.0
22/02:00pm 28.9 23.4 -10.3 7 15.5 SE 13 24 7 13 1014.7 - 0.0
22/01:30pm 28.7 23.1 -10.5 7 15.4 ESE 13 24 7 13 1015.3 - 0.0
22/01:00pm 28.0 22.1 -9.3 8 14.9 SSE 15 35 8 19 1015.9 - 0.0
22/12:30pm 27.7 21.8 -9.5 8 14.7 SE 15 26 8 14 1016.3 - 0.0
22/12:00pm 27.6 21.5 -8.1 9 14.5 SE 17 24 9 13 1017.0 1016.9 0.0
22/11:30am 27.2 20.7 -8.4 9 14.3 ESE 19 28 10 15 1017.5 - 0.0
22/11:00am 26.6 19.9 -7.5 10 13.9 ESE 20 28 11 15 1018.1 - 0.0
22/10:30am 25.8 18.8 -6.9 11 13.3 SSE 22 33 12 18 1018.5 - 0.0
22/10:00am 25.0 18.8 -5.3 13 12.6 SE 19 28 10 15 1018.7 - 0.0
22/09:30am 22.8 17.1 -3.5 17 11.1 SSE 17 20 9 11 1018.9 - 0.0
22/09:00am 19.4 15.5 -1.7 24 8.9 S 9 11 5 6 1019.0 1018.9 0.0
22/08:30am 16.4 12.3 -3.1 26 7.8 SW 9 11 5 6 1018.9 - 0.0
22/08:00am 13.0 9.0 -2.5 34 6.1 WSW 9 11 5 6 1018.7 - 0.0
22/07:30am 9.5 6.2 -1.2 47 4.2 WSW 6 7 3 4 1018.6 - 0.0
22/07:00am 7.1 3.7 -0.8 57 3.0 SW 7 9 4 5 1018.4 - 0.0
22/06:30am 6.9 3.8 -0.1 61 2.7 SSW 6 7 3 4 1018.1 - 0.0
22/06:00am 7.1 4.9 0.8 64 2.5 SSE 2 6 1 3 1017.9 1017.8 0.0
22/05:30am 7.5 5.4 -0.9 55 3.2 CALM 0 2 0 1 1017.7 - 0.0
22/05:00am 7.6 5.2 -0.4 57 3.1 WNW 2 7 1 4 1017.2 - 0.0
22/04:30am 7.3 3.8 -1.1 55 3.2 NW 7 9 4 5 1017.0 - 0.0
22/04:00am 8.2 6.1 -0.5 54 3.4 CALM 0 0 0 0 1017.1 - 0.0
22/03:30am 9.4 7.1 -2.2 44 4.4 CALM 0 0 0 0 1017.0 - 0.0
22/03:00am 9.1 5.6 -1.3 48 4.0 WSW 7 9 4 5 1017.0 1016.9 0.0
22/02:30am 9.4 6.0 -0.8 49 4.0 W 7 7 4 4 1017.0 - 0.0
22/02:00am 9.1 5.9 -0.5 51 3.8 WSW 6 7 3 4 1017.2 - 0.0
22/01:30am 9.4 6.2 -0.2 51 3.8 WSW 6 9 3 5 1017.2 - 0.0
22/01:00am 9.9 6.6 0.0 50 4.0 W 7 7 4 4 1017.3 - 0.0
22/12:30am 10.5 7.2 0.0 48 4.2 W 7 9 4 5 1017.4 - 0.0
22/12:00am 12.3 10.2 -0.6 41 5.2 CALM 0 0 0 0 1017.5 1017.4 0.0
 
Date/Time
CST
Temp
°C
App
Temp
°C
Dew
Point
Rel
Hum
%
Delta-T
°C
Wind Press
QNH
hPa
Press
MSL
hPa
Rain
since 9 am
mm
Dir
 
Spd
km/h
Gust
km/h
Spd
kts
Gust
kts
21/11:30pm 11.7 8.2 -1.4 40 5.2 W 7 9 4 5 1017.4 - 0.0
21/11:00pm 13.5 11.0 -1.3 36 6.0 S 2 7 1 4 1017.3 - 0.0
21/10:30pm 15.2 12.3 -0.9 33 6.7 S 4 7 2 4 1017.3 - 0.0
21/10:00pm 17.1 13.8 -1.1 29 7.7 ESE 6 11 3 6 1017.0 - 0.0
21/09:30pm 16.4 13.0 -0.3 32 7.1 ENE 7 11 4 6 1016.7 - 0.0
21/09:00pm 14.7 11.1 -2.2 31 6.8 W 7 9 4 5 1016.4 1016.3 0.0
21/08:30pm 15.9 13.6 -2.6 28 7.5 CALM 0 7 0 4 1016.2 - 0.0
21/08:00pm 17.3 14.8 -4.0 23 8.5 CALM 0 9 0 5 1015.9 - 0.0
21/07:30pm 18.7 15.1 -4.0 21 9.1 W 6 7 3 4 1015.6 - 0.0
21/07:00pm 20.9 17.8 -5.8 16 10.6 SSE 2 7 1 4 1015.2 - 0.0
21/06:30pm 23.4 19.7 -8.7 11 12.4 S 4 6 2 3 1014.8 - 0.0
21/06:00pm 26.5 21.2 -12.1 7 14.4 SSE 11 15 6 8 1014.4 1014.2 0.0
21/05:30pm 27.2 22.3 -11.5 7 14.7 S 9 13 5 7 1014.3 - 0.0
21/05:00pm 27.3 20.8 -13.4 6 15.0 S 17 24 9 13 1014.1 - 0.0
21/04:30pm 27.5 21.9 -11.3 7 14.9 SE 13 22 7 12 1013.9 - 0.0
21/04:00pm 26.9 20.9 -11.8 7 14.6 S 15 30 8 16 1014.0 - 0.0
21/03:30pm 27.4 21.8 -11.4 7 14.8 S 13 24 7 13 1014.1 - 0.0
21/03:00pm 27.0 21.2 -13.6 6 14.8 S 13 17 7 9 1014.4 1014.2 0.0
21/02:30pm 27.1 21.1 -11.6 7 14.7 SSW 15 26 8 14 1014.6 - 0.0
21/02:00pm 26.4 20.7 -12.1 7 14.4 SSW 13 20 7 11 1015.0 - 0.0
21/01:30pm 26.8 20.1 -10.2 8 14.4 SSW 19 24 10 13 1015.5 - 0.0
21/01:00pm 26.1 20.1 -10.7 8 14.0 SW 15 20 8 11 1016.0 - 0.0
21/12:30pm 25.3 19.0 -9.8 9 13.5 SSW 17 30 9 16 1016.6 - 0.0
21/12:00pm 25.3 19.0 -9.8 9 13.5 SSW 17 28 9 15 1017.0 1016.9 0.0
21/11:30am 25.3 18.6 -8.5 10 13.3 S 20 28 11 15 1017.6 - 0.0
21/11:00am 24.9 18.4 -7.5 11 13.0 SSE 19 26 10 14 1018.0 - 0.0
21/10:30am 23.7 17.4 -6.3 13 12.1 SSE 19 24 10 13 1018.6 - 0.0
21/10:00am 23.8 17.3 -6.2 13 12.2 SSE 20 28 11 15 1018.9 - 0.0
21/09:30am 22.4 16.1 -5.5 15 11.3 SSE 19 26 10 14 1018.9 - 0.0
21/09:00am 21.1 14.6 -5.7 16 10.7 SSE 20 30 11 16 1018.8 1018.7 0.0
21/08:30am 18.5 14.6 -1.3 26 8.4 S 9 13 5 7 1018.6 - 0.0
21/08:00am 14.9 11.1 -0.4 35 6.4 WSW 9 11 5 6 1018.6 - 0.0
21/07:30am 10.2 7.2 1.8 56 3.5 WSW 7 9 4 5 1018.3 - 0.0
21/07:00am 7.4 4.6 1.9 68 2.3 W 6 7 3 4 1018.0 - 0.0
21/06:30am 7.3 5.6 1.8 68 2.2 CALM 0 0 0 0 1017.6 - 0.0
21/06:00am 7.8 6.1 1.9 66 2.4 CALM 0 0 0 0 1017.3 1017.2 0.0
21/05:30am 8.2 5.4 2.0 65 2.6 WSW 6 6 3 3 1017.1 - 0.0
21/05:00am 8.1 5.1 1.9 65 2.6 W 7 7 4 4 1016.7 - 0.0
21/04:30am 8.3 5.9 2.3 66 2.5 W 4 7 2 4 1016.5 - 0.0
21/04:00am 9.1 7.5 2.7 64 2.7 CALM 0 4 0 2 1016.4 - 0.0
21/03:30am 9.5 8.0 2.8 63 2.9 CALM 0 0 0 0 1016.5 - 0.0
21/03:00am 10.1 8.7 3.8 65 2.8 CALM 0 0 0 0 1016.5 1016.4 0.0
21/02:30am 11.1 9.5 2.7 56 3.6 CALM 0 0 0 0 1016.6 - 0.0
21/02:00am 11.6 10.3 4.3 61 3.3 CALM 0 0 0 0 1016.7 - 0.0
21/01:30am 12.1 9.5 3.3 55 3.9 NNW 6 7 3 4 1016.6 - 0.0
21/01:10am 13.2 10.3 2.7 49 4.6 N 7 9 4 5 1016.7 - 0.0
21/01:00am 13.4 10.7 2.6 48 4.8 NNW 6 7 3 4 1016.7 - 0.0
21/12:30am 14.7 11.6 3.8 48 5.0 NNW 9 13 5 7 1016.9 - 0.0
21/12:00am 15.1 12.2 6.4 56 4.2 N 11 13 6 7 1016.9 1016.8 0.0
 
Date/Time
CST
Temp
°C
App
Temp
°C
Dew
Point
Rel
Hum
%
Delta-T
°C
Wind Press
QNH
hPa
Press
MSL
hPa
Rain
since 9 am
mm
Dir
 
Spd
km/h
Gust
km/h
Spd
kts
Gust
kts
20/11:30pm 14.7 12.2 4.7 51 4.7 NW 7 9 4 5 1016.9 - 0.0
20/11:16pm 15.4 12.5 4.8 49 5.0 N 9 11 5 6 1016.8 - 0.0
20/11:00pm 15.0 12.5 4.7 50 4.8 NNW 7 11 4 6 1016.8 - 0.0
20/10:56pm 14.4 11.7 2.9 46 5.2 NNW 6 9 3 5 1016.8 - 0.0
20/10:30pm 15.3 13.6 2.1 41 5.9 CALM 0 0 0 0 1016.7 - 0.0
20/10:00pm 15.8 13.1 2.6 41 5.9 NNW 6 7 3 4 1016.6 - 0.0
20/09:30pm 16.1 14.0 1.8 38 6.3 SSW 2 6 1 3 1016.5 - 0.0
20/09:00pm 17.2 14.0 0.8 33 7.2 SSW 7 7 4 4 1016.5 1016.4 0.0
20/08:30pm 18.3 15.0 0.4 30 7.9 SW 7 9 4 5 1016.1 - 0.0
20/08:00pm 21.2 17.5 -0.1 24 9.5 SSW 9 13 5 7 1015.8 - 0.0
20/07:30pm 21.4 17.7 0.0 24 9.6 SSW 9 11 5 6 1015.4 - 0.0

Other Formats:

Comma delimited format used in spreadsheet applications
http://www.bom.gov.au/fwo/IDD60801/IDD60801.94239.axf

JavaScript Object Notation format (JSON) in row-major order
http://www.bom.gov.au/fwo/IDD60801/IDD60801.94239.json